TAF KLVK
KLVK 280530Z 2806/2906 VRB03KT P6SM SKC FM281900 07007KT P6SM SKC FM290200 VRB03KT P6SM SKC=
METAR KLVK
WC KLVK
WS KLVK
WV KLVK